sensor_id;sensor_type;location;lat;lon;timestamp;pressure;altitude;pressure_sealevel;temperature;humidity
36834;BME280;48003;52.084;5.224;2023-12-29T00:00:27;100697.0;;;12.5;79.78
36834;BME280;48003;52.084;5.224;2023-12-29T00:02:04;100700.0;;;12.56;79.49
36834;BME280;48003;52.084;5.224;2023-12-29T00:05:16;100701.0;;;12.34;80.39
36834;BME280;48003;52.084;5.224;2023-12-29T00:06:52;100697.0;;;12.61;80.23
36834;BME280;48003;52.084;5.224;2023-12-29T00:08:28;100698.0;;;12.35;82.62
36834;BME280;48003;52.084;5.224;2023-12-29T00:10:05;100703.0;;;12.33;83.19
36834;BME280;48003;52.084;5.224;2023-12-29T00:13:17;100705.0;;;12.26;84.87
36834;BME280;48003;52.084;5.224;2023-12-29T00:14:53;100716.0;;;12.34;85.44
36834;BME280;48003;52.084;5.224;2023-12-29T00:16:30;100684.0;;;12.03;88.83
36834;BME280;48003;52.084;5.224;2023-12-29T00:19:42;100686.0;;;11.98;90.64
36834;BME280;48003;52.084;5.224;2023-12-29T00:21:18;100687.0;;;11.85;91.28
36834;BME280;48003;52.084;5.224;2023-12-29T00:22:54;100684.0;;;11.99;89.63
36834;BME280;48003;52.084;5.224;2023-12-29T00:26:06;100683.0;;;12.15;89.11
36834;BME280;48003;52.084;5.224;2023-12-29T00:27:42;100684.0;;;12.06;88.69
36834;BME280;48003;52.084;5.224;2023-12-29T00:29:18;100681.0;;;11.76;89.08
36834;BME280;48003;52.084;5.224;2023-12-29T00:30:55;100688.0;;;11.9;89.0
36834;BME280;48003;52.084;5.224;2023-12-29T00:34:07;100695.0;;;11.73;89.12
36834;BME280;48003;52.084;5.224;2023-12-29T00:35:43;100687.0;;;11.72;88.72
36834;BME280;48003;52.084;5.224;2023-12-29T00:37:19;100687.0;;;11.72;87.81
36834;BME280;48003;52.084;5.224;2023-12-29T00:40:31;100675.0;;;12.02;85.87
36834;BME280;48003;52.084;5.224;2023-12-29T00:42:08;100680.0;;;11.97;85.81
36834;BME280;48003;52.084;5.224;2023-12-29T00:43:43;100662.0;;;11.91;85.48
36834;BME280;48003;52.084;5.224;2023-12-29T00:46:56;100662.0;;;11.95;85.02
36834;BME280;48003;52.084;5.224;2023-12-29T00:48:32;100653.0;;;12.03;84.68
36834;BME280;48003;52.084;5.224;2023-12-29T00:50:08;100673.0;;;12.1;83.64
36834;BME280;48003;52.084;5.224;2023-12-29T00:53:23;100666.0;;;12.17;83.53
36834;BME280;48003;52.084;5.224;2023-12-29T00:54:59;100665.0;;;12.16;82.94
36834;BME280;48003;52.084;5.224;2023-12-29T00:56:35;100673.0;;;12.22;82.98
36834;BME280;48003;52.084;5.224;2023-12-29T00:58:12;100677.0;;;12.21;82.53
36834;BME280;48003;52.084;5.224;2023-12-29T01:01:24;100663.0;;;12.23;82.41
36834;BME280;48003;52.084;5.224;2023-12-29T01:03:00;100650.0;;;12.48;81.86
36834;BME280;48003;52.084;5.224;2023-12-29T01:04:37;100655.0;;;12.36;81.58
36834;BME280;48003;52.084;5.224;2023-12-29T01:07:50;100652.0;;;12.13;82.48
36834;BME280;48003;52.084;5.224;2023-12-29T01:09:26;100676.0;;;12.27;82.02
36834;BME280;48003;52.084;5.224;2023-12-29T01:11:03;100671.0;;;12.33;81.83
36834;BME280;48003;52.084;5.224;2023-12-29T01:14:15;100648.0;;;12.32;82.49
36834;BME280;48003;52.084;5.224;2023-12-29T01:15:51;100652.0;;;12.45;81.7
36834;BME280;48003;52.084;5.224;2023-12-29T01:17:27;100667.0;;;12.15;83.02
36834;BME280;48003;52.084;5.224;2023-12-29T01:19:04;100655.0;;;12.29;83.05
36834;BME280;48003;52.084;5.224;2023-12-29T01:22:16;100672.0;;;12.31;82.61
36834;BME280;48003;52.084;5.224;2023-12-29T01:23:52;100657.0;;;12.22;82.9
36834;BME280;48003;52.084;5.224;2023-12-29T01:28:40;100636.0;;;12.18;83.05
36834;BME280;48003;52.084;5.224;2023-12-29T01:30:16;100637.0;;;12.08;83.23
36834;BME280;48003;52.084;5.224;2023-12-29T01:31:52;100643.0;;;12.02;83.64
36834;BME280;48003;52.084;5.224;2023-12-29T01:35:06;100651.0;;;12.15;83.07
36834;BME280;48003;52.084;5.224;2023-12-29T01:36:42;100653.0;;;12.17;82.87
36834;BME280;48003;52.084;5.224;2023-12-29T01:38:18;100630.0;;;12.19;82.65
36834;BME280;48003;52.084;5.224;2023-12-29T01:41:30;100643.0;;;12.03;83.42
36834;BME280;48003;52.084;5.224;2023-12-29T01:43:06;100655.0;;;12.11;82.8
36834;BME280;48003;52.084;5.224;2023-12-29T01:44:42;100642.0;;;11.97;84.15
36834;BME280;48003;52.084;5.224;2023-12-29T01:46:18;100645.0;;;12.03;83.15
36834;BME280;48003;52.084;5.224;2023-12-29T01:49:33;100661.0;;;12.1;83.3
36834;BME280;48003;52.084;5.224;2023-12-29T01:51:10;100644.0;;;12.34;82.56
36834;BME280;48003;52.084;5.224;2023-12-29T01:52:48;100669.0;;;12.15;82.99
36834;BME280;48003;52.084;5.224;2023-12-29T01:56:07;100653.0;;;12.07;83.12
36834;BME280;48003;52.084;5.224;2023-12-29T01:57:43;100662.0;;;12.04;83.33
36834;BME280;48003;52.084;5.224;2023-12-29T01:59:19;100650.0;;;12.04;83.52
36834;BME280;48003;52.084;5.224;2023-12-29T02:00:55;100645.0;;;12.04;83.75
36834;BME280;48003;52.084;5.224;2023-12-29T02:06:24;100655.0;;;12.06;84.15
36834;BME280;48003;52.084;5.224;2023-12-29T02:08:01;100650.0;;;11.97;85.14
36834;BME280;48003;52.084;5.224;2023-12-29T02:09:38;100659.0;;;12.12;84.28
36834;BME280;48003;52.084;5.224;2023-12-29T02:12:53;100678.0;;;12.07;84.5
36834;BME280;48003;52.084;5.224;2023-12-29T02:14:29;100655.0;;;12.0;84.75
36834;BME280;48003;52.084;5.224;2023-12-29T02:16:09;100660.0;;;11.85;85.42
36834;BME280;48003;52.084;5.224;2023-12-29T02:17:51;100676.0;;;11.96;85.42
36834;BME280;48003;52.084;5.224;2023-12-29T02:21:13;100675.0;;;12.01;84.82
36834;BME280;48003;52.084;5.224;2023-12-29T02:22:50;100661.0;;;12.14;85.14
36834;BME280;48003;52.084;5.224;2023-12-29T02:24:26;100676.0;;;12.08;85.8
36834;BME280;48003;52.084;5.224;2023-12-29T02:26:07;100680.0;;;12.28;84.88
36834;BME280;48003;52.084;5.224;2023-12-29T02:29:29;100678.0;;;12.22;84.94
36834;BME280;48003;52.084;5.224;2023-12-29T02:31:13;100651.0;;;11.98;86.18
36834;BME280;48003;52.084;5.224;2023-12-29T02:32:55;100660.0;;;12.21;85.16
36834;BME280;48003;52.084;5.224;2023-12-29T02:34:36;100663.0;;;11.97;86.16
36834;BME280;48003;52.084;5.224;2023-12-29T02:37:53;100660.0;;;11.92;86.65
36834;BME280;48003;52.084;5.224;2023-12-29T02:39:30;100665.0;;;12.13;85.37
36834;BME280;48003;52.084;5.224;2023-12-29T02:41:06;100678.0;;;11.97;87.28
36834;BME280;48003;52.084;5.224;2023-12-29T02:42:45;100676.0;;;11.65;90.33
36834;BME280;48003;52.084;5.224;2023-12-29T02:45:57;100659.0;;;11.97;90.01
36834;BME280;48003;52.084;5.224;2023-12-29T02:47:33;100676.0;;;11.85;91.38
36834;BME280;48003;52.084;5.224;2023-12-29T02:49:09;100691.0;;;11.87;92.12
36834;BME280;48003;52.084;5.224;2023-12-29T02:52:21;100665.0;;;11.85;92.36
36834;BME280;48003;52.084;5.224;2023-12-29T02:53:57;100658.0;;;11.71;92.19
36834;BME280;48003;52.084;5.224;2023-12-29T02:55:34;100661.0;;;11.71;92.63
36834;BME280;48003;52.084;5.224;2023-12-29T02:58:46;100673.0;;;11.71;93.42
36834;BME280;48003;52.084;5.224;2023-12-29T03:00:22;100663.0;;;11.42;95.07
36834;BME280;48003;52.084;5.224;2023-12-29T03:01:58;100665.0;;;11.68;94.59
36834;BME280;48003;52.084;5.224;2023-12-29T03:05:10;100673.0;;;11.56;94.87
36834;BME280;48003;52.084;5.224;2023-12-29T03:06:46;100669.0;;;11.56;95.37
36834;BME280;48003;52.084;5.224;2023-12-29T03:08:23;100668.0;;;11.63;93.8
36834;BME280;48003;52.084;5.224;2023-12-29T03:09:59;100689.0;;;11.66;93.03
36834;BME280;48003;52.084;5.224;2023-12-29T03:13:12;100683.0;;;11.73;92.11
36834;BME280;48003;52.084;5.224;2023-12-29T03:14:48;100671.0;;;11.59;93.15
36834;BME280;48003;52.084;5.224;2023-12-29T03:16:24;100705.0;;;11.5;93.03
36834;BME280;48003;52.084;5.224;2023-12-29T03:19:36;100692.0;;;11.44;92.86
36834;BME280;48003;52.084;5.224;2023-12-29T03:21:17;100672.0;;;11.65;92.29
36834;BME280;48003;52.084;5.224;2023-12-29T03:22:53;100676.0;;;11.6;91.24
36834;BME280;48003;52.084;5.224;2023-12-29T03:26:05;100665.0;;;11.59;90.97
36834;BME280;48003;52.084;5.224;2023-12-29T03:27:42;100671.0;;;11.5;91.42
36834;BME280;48003;52.084;5.224;2023-12-29T03:29:18;100662.0;;;11.42;92.06
36834;BME280;48003;52.084;5.224;2023-12-29T03:30:54;100650.0;;;11.55;91.02
36834;BME280;48003;52.084;5.224;2023-12-29T03:34:06;100646.0;;;11.61;90.57
36834;BME280;48003;52.084;5.224;2023-12-29T03:35:42;100663.0;;;11.61;90.67
36834;BME280;48003;52.084;5.224;2023-12-29T03:37:18;100656.0;;;11.71;89.68
36834;BME280;48003;52.084;5.224;2023-12-29T03:40:30;100666.0;;;11.74;89.77
36834;BME280;48003;52.084;5.224;2023-12-29T03:42:06;100676.0;;;11.8;88.88
36834;BME280;48003;52.084;5.224;2023-12-29T03:43:43;100671.0;;;11.64;90.23
36834;BME280;48003;52.084;5.224;2023-12-29T03:46:55;100668.0;;;11.72;89.35
36834;BME280;48003;52.084;5.224;2023-12-29T03:48:31;100680.0;;;11.92;88.7
36834;BME280;48003;52.084;5.224;2023-12-29T03:50:08;100651.0;;;11.77;89.04
36834;BME280;48003;52.084;5.224;2023-12-29T03:51:44;100650.0;;;11.74;89.97
36834;BME280;48003;52.084;5.224;2023-12-29T03:54:56;100657.0;;;11.62;90.91
36834;BME280;48003;52.084;5.224;2023-12-29T03:56:32;100655.0;;;11.6;91.87
36834;BME280;48003;52.084;5.224;2023-12-29T03:58:08;100655.0;;;11.6;92.12
36834;BME280;48003;52.084;5.224;2023-12-29T04:01:21;100632.0;;;11.62;91.74
36834;BME280;48003;52.084;5.224;2023-12-29T04:02:57;100623.0;;;11.83;92.31
36834;BME280;48003;52.084;5.224;2023-12-29T04:04:36;100624.0;;;11.83;91.35
36834;BME280;48003;52.084;5.224;2023-12-29T04:07:52;100617.0;;;11.8;92.17
36834;BME280;48003;52.084;5.224;2023-12-29T04:09:28;100628.0;;;11.44;93.1
36834;BME280;48003;52.084;5.224;2023-12-29T04:11:04;100628.0;;;11.79;91.51
36834;BME280;48003;52.084;5.224;2023-12-29T04:12:41;100613.0;;;11.46;93.22
36834;BME280;48003;52.084;5.224;2023-12-29T04:15:54;100634.0;;;11.36;93.51
36834;BME280;48003;52.084;5.224;2023-12-29T04:17:30;100635.0;;;11.44;92.95
36834;BME280;48003;52.084;5.224;2023-12-29T04:19:06;100643.0;;;11.33;93.02
36834;BME280;48003;52.084;5.224;2023-12-29T04:22:18;100640.0;;;11.5;92.25
36834;BME280;48003;52.084;5.224;2023-12-29T04:23:54;100655.0;;;11.39;92.31
36834;BME280;48003;52.084;5.224;2023-12-29T04:25:30;100637.0;;;11.44;92.34
36834;BME280;48003;52.084;5.224;2023-12-29T04:28:42;100651.0;;;11.47;92.33
36834;BME280;48003;52.084;5.224;2023-12-29T04:30:19;100636.0;;;11.43;91.7
36834;BME280;48003;52.084;5.224;2023-12-29T04:31:55;100637.0;;;11.52;91.29
36834;BME280;48003;52.084;5.224;2023-12-29T04:35:07;100660.0;;;11.37;91.34
36834;BME280;48003;52.084;5.224;2023-12-29T04:36:43;100636.0;;;11.48;90.5
36834;BME280;48003;52.084;5.224;2023-12-29T04:38:19;100637.0;;;11.34;91.55
36834;BME280;48003;52.084;5.224;2023-12-29T04:39:55;100650.0;;;11.65;90.06
36834;BME280;48003;52.084;5.224;2023-12-29T04:43:07;100651.0;;;11.66;89.49
36834;BME280;48003;52.084;5.224;2023-12-29T04:44:44;100662.0;;;11.61;89.46
36834;BME280;48003;52.084;5.224;2023-12-29T04:46:20;100649.0;;;11.65;89.04
36834;BME280;48003;52.084;5.224;2023-12-29T04:49:32;100640.0;;;11.81;88.79
36834;BME280;48003;52.084;5.224;2023-12-29T04:51:11;100637.0;;;11.66;88.77
36834;BME280;48003;52.084;5.224;2023-12-29T04:52:47;100640.0;;;11.75;88.17
36834;BME280;48003;52.084;5.224;2023-12-29T04:56:00;100632.0;;;11.77;88.14
36834;BME280;48003;52.084;5.224;2023-12-29T04:57:36;100626.0;;;11.73;87.98
36834;BME280;48003;52.084;5.224;2023-12-29T04:59:12;100626.0;;;11.81;87.31
36834;BME280;48003;52.084;5.224;2023-12-29T05:00:48;100640.0;;;11.73;87.86
36834;BME280;48003;52.084;5.224;2023-12-29T05:04:01;100627.0;;;11.61;88.34
36834;BME280;48003;52.084;5.224;2023-12-29T05:05:37;100621.0;;;11.65;88.9
36834;BME280;48003;52.084;5.224;2023-12-29T05:07:13;100633.0;;;11.62;88.19
36834;BME280;48003;52.084;5.224;2023-12-29T05:10:25;100615.0;;;11.8;88.22
36834;BME280;48003;52.084;5.224;2023-12-29T05:12:02;100644.0;;;11.76;87.56
36834;BME280;48003;52.084;5.224;2023-12-29T05:13:37;100630.0;;;11.77;87.12
36834;BME280;48003;52.084;5.224;2023-12-29T05:16:50;100626.0;;;11.85;86.96
36834;BME280;48003;52.084;5.224;2023-12-29T05:18:26;100641.0;;;11.7;87.99
36834;BME280;48003;52.084;5.224;2023-12-29T05:20:02;100632.0;;;11.87;87.01
36834;BME280;48003;52.084;5.224;2023-12-29T05:23:14;100630.0;;;11.89;86.57
36834;BME280;48003;52.084;5.224;2023-12-29T05:24:50;100639.0;;;12.04;86.6
36834;BME280;48003;52.084;5.224;2023-12-29T05:26:26;100649.0;;;12.14;85.57
36834;BME280;48003;52.084;5.224;2023-12-29T05:28:03;100662.0;;;12.01;86.03
36834;BME280;48003;52.084;5.224;2023-12-29T05:31:15;100642.0;;;12.03;86.04
36834;BME280;48003;52.084;5.224;2023-12-29T05:32:51;100638.0;;;11.88;86.82
36834;BME280;48003;52.084;5.224;2023-12-29T05:34:27;100634.0;;;11.97;86.48
36834;BME280;48003;52.084;5.224;2023-12-29T05:37:44;100633.0;;;11.85;87.22
36834;BME280;48003;52.084;5.224;2023-12-29T05:39:21;100633.0;;;11.92;87.15
36834;BME280;48003;52.084;5.224;2023-12-29T05:40:56;100626.0;;;11.99;86.78
36834;BME280;48003;52.084;5.224;2023-12-29T05:44:09;100632.0;;;11.93;87.08
36834;BME280;48003;52.084;5.224;2023-12-29T05:45:45;100620.0;;;12.0;86.74
36834;BME280;48003;52.084;5.224;2023-12-29T05:47:21;100628.0;;;11.94;86.6
36834;BME280;48003;52.084;5.224;2023-12-29T05:48:57;100617.0;;;11.75;87.52
36834;BME280;48003;52.084;5.224;2023-12-29T05:52:09;100625.0;;;11.72;87.66
36834;BME280;48003;52.084;5.224;2023-12-29T05:53:45;100622.0;;;11.7;87.95
36834;BME280;48003;52.084;5.224;2023-12-29T05:55:21;100627.0;;;11.83;87.35
36834;BME280;48003;52.084;5.224;2023-12-29T05:58:35;100619.0;;;11.8;87.51
36834;BME280;48003;52.084;5.224;2023-12-29T06:00:12;100617.0;;;11.7;87.66
36834;BME280;48003;52.084;5.224;2023-12-29T06:01:49;100613.0;;;11.67;87.37
36834;BME280;48003;52.084;5.224;2023-12-29T06:05:01;100610.0;;;11.73;87.37
36834;BME280;48003;52.084;5.224;2023-12-29T06:06:37;100619.0;;;11.84;86.74
36834;BME280;48003;52.084;5.224;2023-12-29T06:08:13;100613.0;;;11.77;87.0
36834;BME280;48003;52.084;5.224;2023-12-29T06:09:52;100605.0;;;11.94;86.47
36834;BME280;48003;52.084;5.224;2023-12-29T06:13:04;100611.0;;;11.75;87.31
36834;BME280;48003;52.084;5.224;2023-12-29T06:14:41;100637.0;;;11.93;85.69
36834;BME280;48003;52.084;5.224;2023-12-29T06:16:17;100602.0;;;11.71;86.99
36834;BME280;48003;52.084;5.224;2023-12-29T06:19:30;100621.0;;;11.71;86.89
36834;BME280;48003;52.084;5.224;2023-12-29T06:21:06;100601.0;;;11.9;85.75
36834;BME280;48003;52.084;5.224;2023-12-29T06:22:42;100612.0;;;11.87;86.51
36834;BME280;48003;52.084;5.224;2023-12-29T06:25:54;100613.0;;;11.85;85.86
36834;BME280;48003;52.084;5.224;2023-12-29T06:27:30;100612.0;;;11.98;85.81
36834;BME280;48003;52.084;5.224;2023-12-29T06:29:07;100612.0;;;11.76;86.19
36834;BME280;48003;52.084;5.224;2023-12-29T06:30:43;100621.0;;;11.97;85.62
36834;BME280;48003;52.084;5.224;2023-12-29T06:33:55;100618.0;;;12.0;84.47
36834;BME280;48003;52.084;5.224;2023-12-29T06:35:32;100625.0;;;12.0;84.57
36834;BME280;48003;52.084;5.224;2023-12-29T06:37:08;100630.0;;;12.1;83.94
36834;BME280;48003;52.084;5.224;2023-12-29T06:40:20;100626.0;;;12.12;83.82
36834;BME280;48003;52.084;5.224;2023-12-29T06:41:56;100635.0;;;12.0;84.84
36834;BME280;48003;52.084;5.224;2023-12-29T06:43:33;100631.0;;;11.85;85.36
36834;BME280;48003;52.084;5.224;2023-12-29T06:46:45;100618.0;;;12.02;84.6
36834;BME280;48003;52.084;5.224;2023-12-29T06:48:21;100619.0;;;11.89;85.62
36834;BME280;48003;52.084;5.224;2023-12-29T06:49:57;100624.0;;;11.98;85.2
36834;BME280;48003;52.084;5.224;2023-12-29T06:53:09;100624.0;;;11.76;86.16
36834;BME280;48003;52.084;5.224;2023-12-29T06:54:48;100617.0;;;11.86;85.37
36834;BME280;48003;52.084;5.224;2023-12-29T06:56:24;100618.0;;;11.72;86.31
36834;BME280;48003;52.084;5.224;2023-12-29T06:58:00;100614.0;;;11.75;86.62
36834;BME280;48003;52.084;5.224;2023-12-29T07:01:13;100613.0;;;11.8;86.18
36834;BME280;48003;52.084;5.224;2023-12-29T07:02:49;100610.0;;;11.59;87.18
36834;BME280;48003;52.084;5.224;2023-12-29T07:04:25;100617.0;;;11.83;86.25
36834;BME280;48003;52.084;5.224;2023-12-29T07:07:40;100623.0;;;11.91;86.07
36834;BME280;48003;52.084;5.224;2023-12-29T07:09:16;100628.0;;;11.95;86.51
36834;BME280;48003;52.084;5.224;2023-12-29T07:10:52;100625.0;;;11.83;86.73
36834;BME280;48003;52.084;5.224;2023-12-29T07:14:04;100634.0;;;11.61;88.18
36834;BME280;48003;52.084;5.224;2023-12-29T07:15:41;100619.0;;;11.69;88.25
36834;BME280;48003;52.084;5.224;2023-12-29T07:17:17;100622.0;;;11.83;87.22
36834;BME280;48003;52.084;5.224;2023-12-29T07:18:53;100615.0;;;11.82;87.53
36834;BME280;48003;52.084;5.224;2023-12-29T07:22:05;100620.0;;;11.7;88.01
36834;BME280;48003;52.084;5.224;2023-12-29T07:23:41;100615.0;;;12.0;86.59
36834;BME280;48003;52.084;5.224;2023-12-29T07:25:17;100631.0;;;11.98;86.68
36834;BME280;48003;52.084;5.224;2023-12-29T07:28:29;100623.0;;;11.93;87.2
36834;BME280;48003;52.084;5.224;2023-12-29T07:30:08;100636.0;;;11.91;86.83
36834;BME280;48003;52.084;5.224;2023-12-29T07:31:44;100632.0;;;11.85;87.75
36834;BME280;48003;52.084;5.224;2023-12-29T07:34:56;100628.0;;;12.06;86.66
36834;BME280;48003;52.084;5.224;2023-12-29T07:36:32;100630.0;;;11.9;87.89
36834;BME280;48003;52.084;5.224;2023-12-29T07:38:08;100630.0;;;12.08;87.05
36834;BME280;48003;52.084;5.224;2023-12-29T07:41:20;100639.0;;;11.98;88.17
36834;BME280;48003;52.084;5.224;2023-12-29T07:42:56;100627.0;;;12.01;88.01
36834;BME280;48003;52.084;5.224;2023-12-29T07:44:32;100663.0;;;12.14;87.73
36834;BME280;48003;52.084;5.224;2023-12-29T07:46:08;100630.0;;;11.97;88.73
36834;BME280;48003;52.084;5.224;2023-12-29T07:49:21;100633.0;;;11.99;88.57
36834;BME280;48003;52.084;5.224;2023-12-29T07:51:05;100624.0;;;12.09;88.5
36834;BME280;48003;52.084;5.224;2023-12-29T07:52:42;100631.0;;;11.93;89.73
36834;BME280;48003;52.084;5.224;2023-12-29T07:55:54;100630.0;;;11.9;89.62
36834;BME280;48003;52.084;5.224;2023-12-29T07:57:30;100631.0;;;11.84;90.45
36834;BME280;48003;52.084;5.224;2023-12-29T07:59:06;100635.0;;;11.88;90.09
36834;BME280;48003;52.084;5.224;2023-12-29T08:00:42;100635.0;;;11.83;90.14
36834;BME280;48003;52.084;5.224;2023-12-29T08:03:58;100643.0;;;11.87;90.36
36834;BME280;48003;52.084;5.224;2023-12-29T08:05:34;100632.0;;;11.81;90.4
36834;BME280;48003;52.084;5.224;2023-12-29T08:07:10;100642.0;;;12.01;89.3
36834;BME280;48003;52.084;5.224;2023-12-29T08:10:22;100632.0;;;11.77;89.74
36834;BME280;48003;52.084;5.224;2023-12-29T08:11:58;100630.0;;;12.03;89.14
36834;BME280;48003;52.084;5.224;2023-12-29T08:13:34;100618.0;;;12.11;88.92
36834;BME280;48003;52.084;5.224;2023-12-29T08:16:46;100632.0;;;12.12;88.97
36834;BME280;48003;52.084;5.224;2023-12-29T08:18:22;100637.0;;;12.2;88.96
36834;BME280;48003;52.084;5.224;2023-12-29T08:19:58;100640.0;;;12.14;89.5
36834;BME280;48003;52.084;5.224;2023-12-29T08:21:35;100639.0;;;12.0;90.27
36834;BME280;48003;52.084;5.224;2023-12-29T08:24:47;100646.0;;;12.19;89.6
36834;BME280;48003;52.084;5.224;2023-12-29T08:26:23;100641.0;;;12.17;88.91
36834;BME280;48003;52.084;5.224;2023-12-29T08:27:59;100656.0;;;12.35;88.09
36834;BME280;48003;52.084;5.224;2023-12-29T08:31:12;100647.0;;;12.01;89.49
36834;BME280;48003;52.084;5.224;2023-12-29T08:32:48;100658.0;;;11.98;89.62
36834;BME280;48003;52.084;5.224;2023-12-29T08:34:24;100645.0;;;12.09;89.45
36834;BME280;48003;52.084;5.224;2023-12-29T08:37:39;100648.0;;;11.96;89.13
36834;BME280;48003;52.084;5.224;2023-12-29T08:39:15;100663.0;;;11.95;89.61
36834;BME280;48003;52.084;5.224;2023-12-29T08:40:51;100665.0;;;11.98;90.04
36834;BME280;48003;52.084;5.224;2023-12-29T08:44:03;100656.0;;;12.14;89.32
36834;BME280;48003;52.084;5.224;2023-12-29T08:45:39;100657.0;;;12.01;89.66
36834;BME280;48003;52.084;5.224;2023-12-29T08:47:15;100663.0;;;12.14;89.82
36834;BME280;48003;52.084;5.224;2023-12-29T08:48:51;100651.0;;;12.1;91.4
36834;BME280;48003;52.084;5.224;2023-12-29T08:52:04;100653.0;;;11.9;92.38
36834;BME280;48003;52.084;5.224;2023-12-29T08:53:40;100664.0;;;11.74;92.98
36834;BME280;48003;52.084;5.224;2023-12-29T08:55:16;100651.0;;;11.52;93.68
36834;BME280;48003;52.084;5.224;2023-12-29T08:58:29;100674.0;;;11.63;94.26
36834;BME280;48003;52.084;5.224;2023-12-29T09:00:06;100675.0;;;11.65;93.65
36834;BME280;48003;52.084;5.224;2023-12-29T09:01:42;100644.0;;;11.82;93.0
36834;BME280;48003;52.084;5.224;2023-12-29T09:04:54;100662.0;;;11.66;92.54
36834;BME280;48003;52.084;5.224;2023-12-29T09:06:31;100641.0;;;11.79;91.71
36834;BME280;48003;52.084;5.224;2023-12-29T09:08:07;100648.0;;;11.85;92.06
36834;BME280;48003;52.084;5.224;2023-12-29T09:09:46;100648.0;;;11.89;91.61
36834;BME280;48003;52.084;5.224;2023-12-29T09:12:58;100637.0;;;11.97;90.71
36834;BME280;48003;52.084;5.224;2023-12-29T09:14:34;100660.0;;;11.94;91.08
36834;BME280;48003;52.084;5.224;2023-12-29T09:16:10;100674.0;;;11.95;90.42
36834;BME280;48003;52.084;5.224;2023-12-29T09:19:23;100672.0;;;11.83;90.83
36834;BME280;48003;52.084;5.224;2023-12-29T09:21:00;100664.0;;;11.93;91.0
36834;BME280;48003;52.084;5.224;2023-12-29T09:22:36;100670.0;;;11.9;90.38
36834;BME280;48003;52.084;5.224;2023-12-29T09:25:48;100671.0;;;11.86;90.42
36834;BME280;48003;52.084;5.224;2023-12-29T09:27:24;100659.0;;;11.84;90.67
36834;BME280;48003;52.084;5.224;2023-12-29T09:29:00;100670.0;;;11.94;90.12
36834;BME280;48003;52.084;5.224;2023-12-29T09:30:37;100676.0;;;12.07;89.83
36834;BME280;48003;52.084;5.224;2023-12-29T09:33:49;100675.0;;;12.14;89.22
36834;BME280;48003;52.084;5.224;2023-12-29T09:35:26;100686.0;;;11.87;90.89
36834;BME280;48003;52.084;5.224;2023-12-29T09:37:02;100685.0;;;12.16;89.22
36834;BME280;48003;52.084;5.224;2023-12-29T09:40:14;100703.0;;;12.09;89.39
36834;BME280;48003;52.084;5.224;2023-12-29T09:41:52;100680.0;;;12.07;88.85
36834;BME280;48003;52.084;5.224;2023-12-29T09:43:31;100672.0;;;11.98;89.37
36834;BME280;48003;52.084;5.224;2023-12-29T09:46:49;100686.0;;;12.24;88.58
36834;BME280;48003;52.084;5.224;2023-12-29T09:48:27;100678.0;;;12.2;88.74
36834;BME280;48003;52.084;5.224;2023-12-29T09:50:05;100681.0;;;12.12;87.89
36834;BME280;48003;52.084;5.224;2023-12-29T09:51:41;100676.0;;;12.23;88.33
36834;BME280;48003;52.084;5.224;2023-12-29T09:54:56;100705.0;;;12.28;88.18
36834;BME280;48003;52.084;5.224;2023-12-29T09:56:33;100694.0;;;12.12;88.63
36834;BME280;48003;52.084;5.224;2023-12-29T09:58:12;100692.0;;;12.3;88.04
36834;BME280;48003;52.084;5.224;2023-12-29T10:01:26;100691.0;;;12.18;87.84
36834;BME280;48003;52.084;5.224;2023-12-29T10:03:04;100681.0;;;12.29;87.36
36834;BME280;48003;52.084;5.224;2023-12-29T10:04:40;100687.0;;;12.33;87.32
36834;BME280;48003;52.084;5.224;2023-12-29T10:06:21;100681.0;;;12.43;86.99
36834;BME280;48003;52.084;5.224;2023-12-29T10:09:40;100692.0;;;12.29;88.26
36834;BME280;48003;52.084;5.224;2023-12-29T10:11:20;100678.0;;;12.49;87.08
36834;BME280;48003;52.084;5.224;2023-12-29T10:12:57;100684.0;;;12.59;86.12
36834;BME280;48003;52.084;5.224;2023-12-29T10:14:40;100691.0;;;12.48;86.81
36834;BME280;48003;52.084;5.224;2023-12-29T10:18:15;100705.0;;;12.59;86.27
36834;BME280;48003;52.084;5.224;2023-12-29T10:20:15;100685.0;;;12.43;86.7
36834;BME280;48003;52.084;5.224;2023-12-29T10:22:10;100691.0;;;12.59;86.34
36834;BME280;48003;52.084;5.224;2023-12-29T10:23:51;100686.0;;;12.55;87.22
36834;BME280;48003;52.084;5.224;2023-12-29T10:25:32;100689.0;;;12.51;86.82
36834;BME280;48003;52.084;5.224;2023-12-29T10:27:09;100700.0;;;12.52;86.31
36834;BME280;48003;52.084;5.224;2023-12-29T10:30:22;100690.0;;;12.64;85.85
36834;BME280;48003;52.084;5.224;2023-12-29T10:31:58;100695.0;;;12.54;86.6
36834;BME280;48003;52.084;5.224;2023-12-29T10:33:34;100686.0;;;12.47;86.63
36834;BME280;48003;52.084;5.224;2023-12-29T10:36:48;100694.0;;;12.36;86.83
36834;BME280;48003;52.084;5.224;2023-12-29T10:38:24;100700.0;;;12.41;86.75
36834;BME280;48003;52.084;5.224;2023-12-29T10:40:01;100731.0;;;12.49;86.25
36834;BME280;48003;52.084;5.224;2023-12-29T10:43:13;100695.0;;;12.68;85.6
36834;BME280;48003;52.084;5.224;2023-12-29T10:45:04;100702.0;;;12.58;85.71
36834;BME280;48003;52.084;5.224;2023-12-29T10:46:41;100693.0;;;12.53;85.91
36834;BME280;48003;52.084;5.224;2023-12-29T10:48:21;100708.0;;;12.67;85.36
36834;BME280;48003;52.084;5.224;2023-12-29T10:51:39;100712.0;;;12.75;84.94
36834;BME280;48003;52.084;5.224;2023-12-29T10:53:16;100712.0;;;12.57;85.57
36834;BME280;48003;52.084;5.224;2023-12-29T10:55:04;100710.0;;;12.52;86.15
36834;BME280;48003;52.084;5.224;2023-12-29T10:56:41;100703.0;;;12.46;86.15
36834;BME280;48003;52.084;5.224;2023-12-29T10:59:54;100718.0;;;12.69;84.86
36834;BME280;48003;52.084;5.224;2023-12-29T11:01:32;100710.0;;;12.64;84.95
36834;BME280;48003;52.084;5.224;2023-12-29T11:03:14;100713.0;;;12.74;84.33
36834;BME280;48003;52.084;5.224;2023-12-29T11:04:50;100720.0;;;12.75;84.49
36834;BME280;48003;52.084;5.224;2023-12-29T11:08:15;100730.0;;;12.36;85.78
36834;BME280;48003;52.084;5.224;2023-12-29T11:09:51;100714.0;;;12.87;84.04